Time;durP1;ratioP1;P1;durP2;ratioP2;P2;SDS_P1;SDS_P2;PMS_P1;PMS_P2;Temp;Humidity;BMP_temperature;BMP_pressure;BME280_temperature;BME280_humidity;BME280_pressure;Samples;Min_cycle;Max_cycle;Signal;HPM_P1;HPM_P2
2023/02/08 00:02:20;;;;;;;11.40;7.60;;;-0.20;99.90;;;;;;5013931;28;20038;-83
2023/02/08 00:04:46;;;;;;;12.05;7.53;;;-0.30;99.90;;;;;;5013832;28;20088;-82
2023/02/08 00:07:12;;;;;;;10.23;6.55;;;-0.30;99.90;;;;;;5013754;28;20022;-83
2023/02/08 00:09:37;;;;;;;10.50;6.70;;;-0.30;99.90;;;;;;5013585;28;20121;-83
2023/02/08 00:12:03;;;;;;;12.27;7.55;;;-0.30;99.90;;;;;;5015326;28;20026;-83
2023/02/08 00:14:29;;;;;;;10.75;6.68;;;-0.30;99.90;;;;;;5013449;28;20419;-83
2023/02/08 00:16:54;;;;;;;11.68;7.30;;;-0.30;99.90;;;;;;5013852;28;20025;-83
2023/02/08 00:19:20;;;;;;;12.00;7.15;;;-0.30;99.90;;;;;;5015056;28;20083;-84
2023/02/08 00:21:45;;;;;;;10.38;7.20;;;-0.30;99.90;;;;;;5013649;28;20113;-84
2023/02/08 00:24:11;;;;;;;10.45;6.70;;;-0.40;99.90;;;;;;5013594;28;20041;-84
2023/02/08 00:26:36;;;;;;;10.02;6.57;;;-0.40;99.90;;;;;;5013566;28;20021;-84
2023/02/08 00:29:02;;;;;;;11.35;7.28;;;-0.40;99.90;;;;;;5013462;28;20034;-85
2023/02/08 00:31:28;;;;;;;10.02;6.90;;;-0.40;99.90;;;;;;5013563;28;20022;-84
2023/02/08 00:33:53;;;;;;;9.68;6.50;;;-0.40;99.90;;;;;;5014816;28;20531;-85
2023/02/08 00:36:19;;;;;;;11.38;6.93;;;-0.40;99.90;;;;;;5013552;28;20029;-83
2023/02/08 00:38:44;;;;;;;10.95;6.88;;;-0.40;99.90;;;;;;5014898;28;20068;-83
2023/02/08 00:41:10;;;;;;;9.77;6.15;;;-0.50;99.90;;;;;;5013626;28;20037;-83
2023/02/08 00:43:36;;;;;;;10.00;6.28;;;-0.50;99.90;;;;;;5013218;28;20076;-82
2023/02/08 00:46:02;;;;;;;10.65;6.55;;;-0.50;99.90;;;;;;5014598;28;20088;-84
2023/02/08 00:48:27;;;;;;;10.38;6.43;;;-0.50;99.90;;;;;;5013468;28;20026;-84
2023/02/08 00:51:08;;;;;;;9.75;6.88;;;-0.50;99.90;;;;;;5013397;28;20526;-84
2023/02/08 00:53:36;;;;;;;9.73;5.75;;;-0.50;99.90;;;;;;5013278;28;20109;-83
2023/02/08 00:56:01;;;;;;;11.90;7.03;;;-0.50;99.90;;;;;;5013148;28;20058;-84
2023/02/08 00:58:27;;;;;;;10.48;6.75;;;-0.50;99.90;;;;;;5013265;28;20053;-83
2023/02/08 01:00:53;;;;;;;10.05;5.93;;;-0.60;99.90;;;;;;5012931;28;20030;-84
2023/02/08 01:03:22;;;;;;;9.13;6.28;;;-0.60;99.90;;;;;;5011847;28;20061;-84
2023/02/08 01:05:48;;;;;;;10.90;6.93;;;-0.60;99.90;;;;;;5012759;28;20037;-83
2023/02/08 01:08:14;;;;;;;8.90;6.20;;;-0.60;99.90;;;;;;5013116;28;20476;-84
2023/02/08 01:10:40;;;;;;;9.57;6.63;;;-0.60;99.90;;;;;;5012783;28;20030;-84
2023/02/08 01:13:05;;;;;;;10.90;7.05;;;-0.70;99.90;;;;;;5013200;28;20480;-85
2023/02/08 01:15:31;;;;;;;10.57;6.90;;;-0.70;99.90;;;;;;5012655;28;20072;-84
2023/02/08 01:17:57;;;;;;;9.65;6.18;;;-0.70;99.90;;;;;;5013106;28;20357;-85
2023/02/08 01:20:23;;;;;;;10.75;6.90;;;-0.70;99.90;;;;;;5012557;28;20045;-84
2023/02/08 01:22:49;;;;;;;11.68;7.15;;;-0.70;99.90;;;;;;5012680;28;20079;-85
2023/02/08 01:25:15;;;;;;;9.73;6.50;;;-0.80;99.90;;;;;;5012969;28;20468;-84
2023/02/08 01:27:41;;;;;;;10.23;6.30;;;-0.80;99.90;;;;;;5011791;28;20022;-83
2023/02/08 01:30:07;;;;;;;12.20;7.05;;;-0.80;99.90;;;;;;5013845;28;20034;-84
2023/02/08 01:32:33;;;;;;;10.95;6.90;;;-0.80;99.90;;;;;;5012778;28;20036;-85
2023/02/08 01:34:58;;;;;;;11.43;6.97;;;-0.80;99.90;;;;;;5012687;28;20018;-85
2023/02/08 01:37:24;;;;;;;10.93;7.07;;;-0.80;99.90;;;;;;5012654;28;20069;-86
2023/02/08 01:39:49;;;;;;;10.32;6.65;;;-0.90;99.90;;;;;;5012804;28;20382;-85
2023/02/08 01:42:17;;;;;;;10.98;6.65;;;-0.90;99.90;;;;;;5012308;28;20042;-85
2023/02/08 01:45:14;;;;;;;10.32;6.43;;;-0.90;99.90;;;;;;5012333;28;20042;-84
2023/02/08 01:47:41;;;;;;;10.00;6.57;;;-0.90;99.90;;;;;;5012279;28;20037;-84
2023/02/08 01:50:07;;;;;;;11.82;7.53;;;-1.00;99.90;;;;;;5012057;28;20022;-83
2023/02/08 01:52:33;;;;;;;11.05;6.90;;;-1.00;99.90;;;;;;5028641;28;20369;-84
2023/02/08 01:55:03;;;;;;;11.55;7.07;;;-1.00;99.90;;;;;;5013623;28;20022;-84
2023/02/08 01:57:29;;;;;;;11.52;7.90;;;-1.10;99.90;;;;;;5012371;28;20460;-83
2023/02/08 02:00:09;;;;;;;10.75;6.18;;;-1.10;99.90;;;;;;5012370;28;20025;-84
2023/02/08 02:02:37;;;;;;;10.55;6.47;;;-1.10;99.90;;;;;;5012015;28;20116;-84
2023/02/08 02:05:03;;;;;;;12.30;7.55;;;-1.10;99.90;;;;;;5011747;28;20029;-83
2023/02/08 02:07:29;;;;;;;10.55;6.55;;;-1.10;99.90;;;;;;5012015;28;20021;-82
2023/02/08 02:10:04;;;;;;;10.23;6.47;;;-1.10;99.90;;;;;;5011766;28;20401;-84
2023/02/08 02:12:31;;;;;;;10.93;7.05;;;-1.20;99.90;;;;;;5011793;28;20080;-83
2023/02/08 02:14:58;;;;;;;10.23;6.93;;;-1.20;99.90;;;;;;5012140;28;20026;-83
2023/02/08 02:17:23;;;;;;;9.20;6.68;;;-1.20;99.90;;;;;;5012064;28;20033;-84
2023/02/08 02:20:22;;;;;;;9.75;6.10;;;-1.20;99.90;;;;;;5013240;28;20388;-82
2023/02/08 02:23:20;;;;;;;12.07;7.25;;;-1.20;99.90;;;;;;5013178;28;20084;-83
2023/02/08 02:26:18;;;;;;;10.00;6.45;;;-1.20;99.90;;;;;;5011506;28;20357;-81
2023/02/08 02:29:14;;;;;;;9.73;5.68;;;-1.30;99.90;;;;;;5011655;28;20025;-83
2023/02/08 02:31:46;;;;;;;10.52;6.70;;;-1.30;99.90;;;;;;5011748;28;20452;-84
2023/02/08 02:34:36;;;;;;;8.77;5.45;;;-1.30;99.90;;;;;;5013120;28;20028;-82
2023/02/08 02:37:26;;;;;;;9.18;5.95;;;-1.30;99.90;;;;;;5013116;28;20472;-83
2023/02/08 02:40:16;;;;;;;10.30;5.68;;;-1.30;99.90;;;;;;5011783;28;20040;-83
2023/02/08 02:46:07;;;;;;;9.48;5.47;;;-1.30;99.90;;;;;;5013225;28;20108;-82
2023/02/08 02:48:57;;;;;;;9.80;6.10;;;-1.30;99.90;;;;;;5011813;28;20037;-82
2023/02/08 02:51:28;;;;;;;10.15;6.63;;;-1.40;99.90;;;;;;5013287;28;20064;-83
2023/02/08 02:54:03;;;;;;;10.48;6.00;;;-1.40;99.90;;;;;;5012221;28;20026;-83
2023/02/08 02:56:34;;;;;;;9.63;5.70;;;-1.40;99.90;;;;;;5012410;28;20030;-82
2023/02/08 02:59:06;;;;;;;8.57;5.82;;;-1.40;99.90;;;;;;5013247;28;20018;-82
2023/02/08 03:01:32;;;;;;;9.90;6.30;;;-1.40;99.90;;;;;;5023605;28;20037;-83
2023/02/08 03:03:57;;;;;;;9.45;6.03;;;-1.40;99.90;;;;;;5031899;28;20030;-81
2023/02/08 03:06:44;;;;;;;10.00;6.65;;;-1.40;99.90;;;;;;5032647;28;20045;-82
2023/02/08 03:09:25;;;;;;;11.00;6.43;;;-1.40;99.90;;;;;;5020132;28;20030;-82
2023/02/08 03:11:57;;;;;;;10.65;6.38;;;-1.50;99.90;;;;;;5013433;28;20475;-82
2023/02/08 03:14:45;;;;;;;9.47;5.90;;;-1.50;99.90;;;;;;5014696;28;20026;-82
2023/02/08 03:17:53;;;;;;;12.05;6.97;;;-1.50;99.90;;;;;;5011559;28;20789;-83
2023/02/08 03:20:28;;;;;;;9.57;5.97;;;-1.50;99.90;;;;;;5010774;28;20150;-82
2023/02/08 03:22:59;;;;;;;9.70;5.93;;;-1.50;99.90;;;;;;5011002;28;20048;-82
2023/02/08 03:25:53;;;;;;;11.95;7.47;;;-1.50;99.90;;;;;;5011044;28;20416;-81
2023/02/08 03:28:41;;;;;;;11.52;7.22;;;-1.60;99.90;;;;;;5012344;28;20026;-82
2023/02/08 03:31:42;;;;;;;11.43;7.20;;;-1.50;99.90;;;;;;5011206;28;20029;-83
2023/02/08 03:34:13;;;;;;;10.25;6.45;;;-1.60;99.90;;;;;;5010938;28;20076;-83
2023/02/08 03:36:38;;;;;;;10.07;6.15;;;-1.60;99.90;;;;;;5010747;28;20533;-82
2023/02/08 03:39:09;;;;;;;11.05;6.75;;;-1.60;99.90;;;;;;5010944;28;20125;-82
2023/02/08 03:41:38;;;;;;;11.88;7.15;;;-1.60;99.90;;;;;;5010784;28;20100;-83
2023/02/08 03:44:09;;;;;;;11.38;6.47;;;-1.60;99.90;;;;;;5010380;28;20054;-82
2023/02/08 03:46:47;;;;;;;11.93;7.32;;;-1.50;99.90;;;;;;5011274;28;20602;-83
2023/02/08 03:49:17;;;;;;;11.45;7.03;;;-1.50;99.90;;;;;;5010476;28;20026;-83
2023/02/08 03:51:43;;;;;;;10.45;7.10;;;-1.50;99.90;;;;;;5014064;28;20479;-83
2023/02/08 03:54:18;;;;;;;11.80;7.38;;;-1.50;99.90;;;;;;5015871;28;20088;-83
2023/02/08 03:57:25;;;;;;;11.52;7.35;;;-1.50;99.90;;;;;;5014666;28;20376;-82
2023/02/08 04:00:01;;;;;;;11.57;7.25;;;-1.50;99.90;;;;;;5013994;28;20038;-84
2023/02/08 04:02:30;;;;;;;12.40;7.40;;;-1.60;99.90;;;;;;5015421;28;20118;-82
2023/02/08 04:04:57;;;;;;;11.48;7.43;;;-1.50;99.90;;;;;;5015339;28;20033;-83
2023/02/08 04:07:22;;;;;;;12.15;7.35;;;-1.50;99.90;;;;;;5015468;28;20392;-83
2023/02/08 04:09:48;;;;;;;13.13;7.47;;;-1.50;99.90;;;;;;5014198;28;20022;-83
2023/02/08 04:12:14;;;;;;;14.07;8.45;;;-1.50;99.90;;;;;;5014024;28;20069;-83
2023/02/08 04:14:39;;;;;;;12.40;7.55;;;-1.60;99.90;;;;;;5014224;28;20124;-83
2023/02/08 04:17:05;;;;;;;13.10;8.25;;;-1.60;99.90;;;;;;5014975;28;20115;-83
2023/02/08 04:19:30;;;;;;;17.05;8.68;;;-1.60;99.90;;;;;;5015097;28;20391;-84
2023/02/08 04:21:56;;;;;;;13.90;8.40;;;-1.60;99.90;;;;;;5014275;28;20125;-82
2023/02/08 04:24:21;;;;;;;12.88;8.07;;;-1.60;99.90;;;;;;5013562;28;20044;-82
2023/02/08 04:26:47;;;;;;;13.10;8.55;;;-1.60;99.90;;;;;;5013770;28;20044;-83
2023/02/08 04:29:13;;;;;;;12.52;8.85;;;-1.70;99.90;;;;;;5013658;28;20076;-83
2023/02/08 04:31:38;;;;;;;16.27;9.45;;;-1.70;99.90;;;;;;5013737;28;20033;-84
2023/02/08 04:34:04;;;;;;;13.85;8.63;;;-1.70;99.90;;;;;;5014961;28;20064;-83
2023/02/08 04:36:30;;;;;;;17.33;9.40;;;-1.70;99.90;;;;;;5013774;28;20093;-82
2023/02/08 04:38:55;;;;;;;14.68;9.13;;;-1.70;99.90;;;;;;5014693;28;20475;-83
2023/02/08 04:41:21;;;;;;;15.07;9.13;;;-1.80;99.90;;;;;;5013556;28;20026;-82
2023/02/08 04:43:46;;;;;;;14.70;8.80;;;-1.80;99.90;;;;;;5012945;28;20054;-83
2023/02/08 04:46:12;;;;;;;13.60;8.75;;;-1.80;99.90;;;;;;5013375;28;20025;-83
2023/02/08 04:48:38;;;;;;;14.25;8.95;;;-1.80;99.90;;;;;;5014293;28;20527;-83
2023/02/08 04:51:03;;;;;;;12.43;8.50;;;-1.70;99.90;;;;;;5013348;28;20345;-83
2023/02/08 04:53:29;;;;;;;11.77;7.78;;;-1.70;99.90;;;;;;5013079;28;20034;-84
2023/02/08 04:55:55;;;;;;;13.20;7.63;;;-1.70;99.90;;;;;;5014591;28;20018;-83
2023/02/08 04:58:21;;;;;;;13.73;7.65;;;-1.70;99.90;;;;;;5013100;28;20161;-84
2023/02/08 05:00:46;;;;;;;11.63;7.50;;;-1.70;99.90;;;;;;5012781;28;20028;-84
2023/02/08 05:03:12;;;;;;;11.57;6.90;;;-1.70;99.90;;;;;;5012867;28;20113;-83
2023/02/08 05:05:38;;;;;;;11.35;7.05;;;-1.70;99.90;;;;;;5013080;28;20018;-84
2023/02/08 05:08:04;;;;;;;12.98;7.40;;;-1.70;99.90;;;;;;5013098;28;20026;-80
2023/02/08 05:10:29;;;;;;;12.43;7.53;;;-1.70;99.90;;;;;;5014157;28;20028;-83
2023/02/08 05:12:55;;;;;;;12.88;7.43;;;-1.60;99.90;;;;;;5012932;28;20124;-84
2023/02/08 05:15:20;;;;;;;12.68;7.82;;;-1.60;99.90;;;;;;5012665;28;20494;-83
2023/02/08 05:17:46;;;;;;;12.98;8.10;;;-1.70;99.90;;;;;;5012516;28;20033;-83
2023/02/08 05:20:12;;;;;;;12.98;8.32;;;-1.70;99.90;;;;;;5013832;28;20033;-83
2023/02/08 05:22:38;;;;;;;11.80;6.85;;;-1.70;99.90;;;;;;5012801;28;20494;-82
2023/02/08 05:25:04;;;;;;;12.55;7.63;;;-1.70;99.90;;;;;;5012710;28;20022;-82
2023/02/08 05:27:30;;;;;;;13.52;7.40;;;-1.70;99.90;;;;;;5013045;28;20022;-81
2023/02/08 05:29:55;;;;;;;12.13;7.53;;;-1.70;99.90;;;;;;5012602;28;20079;-83
2023/02/08 05:32:21;;;;;;;11.75;7.43;;;-1.70;99.90;;;;;;5012804;28;20018;-83
2023/02/08 05:34:47;;;;;;;14.05;8.15;;;-1.70;99.90;;;;;;5012780;28;20480;-82
2023/02/08 05:37:13;;;;;;;11.80;7.18;;;-1.70;99.90;;;;;;5013877;28;20037;-83
2023/02/08 05:39:39;;;;;;;12.27;7.95;;;-1.70;99.90;;;;;;5012469;28;20026;-83
2023/02/08 05:42:05;;;;;;;14.20;7.75;;;-1.60;99.90;;;;;;5012351;28;20108;-83
2023/02/08 05:44:31;;;;;;;13.75;8.45;;;-1.60;99.90;;;;;;5012307;28;20085;-83
2023/02/08 05:46:57;;;;;;;14.70;7.88;;;-1.60;99.90;;;;;;5013760;28;20045;-83
2023/02/08 05:49:22;;;;;;;14.48;7.88;;;-1.60;99.90;;;;;;5013760;28;20033;-83
2023/02/08 05:51:49;;;;;;;12.23;8.27;;;-1.50;99.90;;;;;;5012128;28;20018;-83
2023/02/08 05:54:15;;;;;;;15.43;8.65;;;-1.60;99.90;;;;;;5011959;28;20022;-83
2023/02/08 05:56:43;;;;;;;14.05;8.45;;;-1.50;99.90;;;;;;5012368;28;20367;-83
2023/02/08 05:59:12;;;;;;;14.77;8.73;;;-1.50;99.90;;;;;;5012118;28;20018;-83
2023/02/08 06:01:37;;;;;;;12.60;8.23;;;-1.50;99.90;;;;;;5013466;28;20022;-83
2023/02/08 06:04:03;;;;;;;13.73;8.48;;;-1.50;99.90;;;;;;5011724;28;20046;-83
2023/02/08 06:06:29;;;;;;;13.75;8.25;;;-1.50;99.90;;;;;;5011924;28;20025;-83
2023/02/08 06:08:54;;;;;;;13.68;8.43;;;-1.50;99.90;;;;;;5013477;28;20113;-82
2023/02/08 06:11:20;;;;;;;13.75;8.05;;;-1.50;99.90;;;;;;5012384;28;20018;-83
2023/02/08 06:13:46;;;;;;;14.15;8.75;;;-1.50;99.90;;;;;;5012015;28;20042;-84
2023/02/08 06:16:13;;;;;;;16.80;9.05;;;-1.50;99.90;;;;;;5011856;28;20018;-83
2023/02/08 06:18:39;;;;;;;16.10;8.68;;;-1.50;99.90;;;;;;5011977;28;20121;-83
2023/02/08 06:21:05;;;;;;;13.80;8.50;;;-1.50;99.90;;;;;;5012105;28;20057;-83
2023/02/08 06:23:31;;;;;;;18.60;10.02;;;-1.50;99.90;;;;;;5011612;28;20510;-81
2023/02/08 06:25:56;;;;;;;16.27;9.52;;;-1.50;99.90;;;;;;5012873;28;20152;-83
2023/02/08 06:28:22;;;;;;;13.70;8.30;;;-1.50;99.90;;;;;;5011999;28;20068;-83
2023/02/08 06:30:49;;;;;;;15.00;10.15;;;-1.50;99.90;;;;;;5011915;28;20053;-82
2023/02/08 06:33:15;;;;;;;13.77;8.77;;;-1.60;99.90;;;;;;5011939;28;20088;-82
2023/02/08 06:35:49;;;;;;;16.23;9.23;;;-1.60;99.90;;;;;;5011501;28;20360;-81
2023/02/08 06:38:15;;;;;;;15.50;8.82;;;-1.60;99.90;;;;;;5011570;28;20018;-82
2023/02/08 06:40:41;;;;;;;17.02;9.68;;;-1.60;99.90;;;;;;5012933;28;20379;-82
2023/02/08 06:43:06;;;;;;;14.15;8.27;;;-1.60;99.90;;;;;;5011392;28;20466;-83
2023/02/08 06:45:32;;;;;;;13.02;8.15;;;-1.60;99.90;;;;;;5011848;28;20026;-82
2023/02/08 06:47:58;;;;;;;13.75;8.10;;;-1.60;99.90;;;;;;5011565;28;20028;-83
2023/02/08 06:50:23;;;;;;;14.07;8.50;;;-1.60;99.90;;;;;;5011342;28;20018;-82
2023/02/08 06:52:49;;;;;;;13.35;7.72;;;-1.60;99.90;;;;;;5011385;28;20414;-83
2023/02/08 06:55:15;;;;;;;13.63;8.48;;;-1.60;99.90;;;;;;5012636;28;20026;-83
2023/02/08 06:57:40;;;;;;;14.88;8.85;;;-1.60;99.90;;;;;;5011470;28;20018;-82
2023/02/08 07:00:07;;;;;;;14.32;8.75;;;-1.60;99.90;;;;;;5010372;28;20041;-82
2023/02/08 07:02:32;;;;;;;15.85;9.43;;;-1.60;99.90;;;;;;5010968;28;20410;-82
2023/02/08 07:04:58;;;;;;;14.50;9.55;;;-1.60;99.90;;;;;;5011018;28;20029;-80
2023/02/08 07:07:24;;;;;;;14.70;9.27;;;-1.60;99.90;;;;;;5012439;28;20511;-80
2023/02/08 07:09:49;;;;;;;13.63;8.55;;;-1.60;99.90;;;;;;5012379;28;20045;-80
2023/02/08 07:12:15;;;;;;;16.05;9.15;;;-1.60;99.90;;;;;;5011072;28;20399;-81
2023/02/08 07:14:42;;;;;;;14.30;8.68;;;-1.60;99.90;;;;;;5011068;28;20564;-81
2023/02/08 07:17:09;;;;;;;14.73;9.48;;;-1.50;99.90;;;;;;5011132;28;20018;-82
2023/02/08 07:19:34;;;;;;;15.70;8.90;;;-1.60;99.90;;;;;;5010852;28;20022;-80
2023/02/08 07:22:06;;;;;;;16.08;9.20;;;-1.60;99.90;;;;;;5012289;28;20080;-81
2023/02/08 07:24:36;;;;;;;14.45;9.68;;;-1.60;99.90;;;;;;5011868;28;20034;-81
2023/02/08 07:27:01;;;;;;;14.35;9.13;;;-1.50;99.90;;;;;;5014781;28;20434;-80
2023/02/08 07:29:29;;;;;;;17.45;9.65;;;-1.60;99.90;;;;;;5015093;28;20121;-81
2023/02/08 07:31:55;;;;;;;14.50;9.43;;;-1.50;99.90;;;;;;5015121;28;20018;-82
2023/02/08 07:34:20;;;;;;;15.38;9.18;;;-1.50;99.90;;;;;;5015535;28;20033;-81
2023/02/08 07:36:47;;;;;;;16.52;10.40;;;-1.50;99.90;;;;;;5015550;28;20110;-82
2023/02/08 07:39:13;;;;;;;14.23;9.07;;;-1.50;99.90;;;;;;5016301;28;20029;-81
2023/02/08 07:41:39;;;;;;;14.00;9.05;;;-1.50;99.90;;;;;;5033073;28;20416;-80
2023/02/08 07:44:05;;;;;;;16.35;9.60;;;-1.40;99.90;;;;;;5035533;28;20050;-81
2023/02/08 07:46:30;;;;;;;17.98;9.50;;;-1.40;99.90;;;;;;5033099;28;20504;-82
2023/02/08 07:48:56;;;;;;;14.50;8.68;;;-1.40;99.90;;;;;;5015438;28;20196;-81
2023/02/08 07:51:21;;;;;;;16.73;10.05;;;-1.40;99.90;;;;;;5015269;28;20029;-81
2023/02/08 07:53:47;;;;;;;17.08;10.32;;;-1.30;99.90;;;;;;5014256;28;20037;-80
2023/02/08 07:56:12;;;;;;;16.10;10.23;;;-1.30;99.90;;;;;;4994780;28;20026;-81
2023/02/08 07:58:38;;;;;;;14.55;9.32;;;-1.30;99.90;;;;;;4995607;28;20030;-80
2023/02/08 08:01:07;;;;;;;15.77;10.23;;;-1.30;99.90;;;;;;4995552;28;20101;-82
2023/02/08 08:03:33;;;;;;;14.20;9.45;;;-1.20;99.90;;;;;;4994241;28;20105;-82
2023/02/08 08:05:58;;;;;;;14.88;9.55;;;-1.20;99.90;;;;;;4994210;28;20472;-82
2023/02/08 08:08:24;;;;;;;14.48;8.93;;;-1.20;99.90;;;;;;4994208;28;20026;-79
2023/02/08 08:10:49;;;;;;;14.30;9.23;;;-1.10;99.90;;;;;;4994056;28;20030;-81
2023/02/08 08:13:15;;;;;;;13.10;8.55;;;-1.10;99.90;;;;;;4995543;28;20034;-82
2023/02/08 08:15:40;;;;;;;13.57;9.23;;;-1.00;99.90;;;;;;4994028;28;20023;-82
2023/02/08 08:18:07;;;;;;;13.43;8.60;;;-1.00;99.90;;;;;;4994033;28;20065;-82
2023/02/08 08:20:32;;;;;;;12.45;8.18;;;-0.90;99.90;;;;;;4993981;28;20087;-82
2023/02/08 08:22:59;;;;;;;14.77;8.68;;;-0.90;99.90;;;;;;4994112;28;20366;-83
2023/02/08 08:25:25;;;;;;;12.35;8.48;;;-0.80;99.90;;;;;;4993982;28;20121;-83
2023/02/08 08:27:51;;;;;;;14.45;8.38;;;-0.70;99.90;;;;;;4993670;28;20376;-83
2023/02/08 08:30:17;;;;;;;14.40;7.88;;;-0.70;99.90;;;;;;4994266;28;20037;-83
2023/02/08 08:32:43;;;;;;;12.43;7.60;;;-0.60;99.90;;;;;;4995077;28;20034;-83
2023/02/08 08:35:09;;;;;;;11.82;8.00;;;-0.60;99.90;;;;;;4993290;28;20026;-82
2023/02/08 08:37:36;;;;;;;13.57;7.90;;;-0.60;99.90;;;;;;4997045;28;20494;-83
2023/02/08 08:40:03;;;;;;;13.10;7.53;;;-0.50;99.90;;;;;;5011253;28;20603;-82
2023/02/08 08:42:28;;;;;;;13.35;7.78;;;-0.40;99.90;;;;;;5012481;28;20468;-84
2023/02/08 08:44:54;;;;;;;11.82;7.32;;;-0.30;99.90;;;;;;5013134;28;20031;-85
2023/02/08 08:47:20;;;;;;;11.85;7.35;;;-0.20;99.90;;;;;;5012408;28;20135;-84
2023/02/08 08:49:45;;;;;;;12.10;8.00;;;-0.20;99.90;;;;;;5011817;28;20026;-84
2023/02/08 08:52:12;;;;;;;13.75;7.45;;;-0.10;99.90;;;;;;5013516;28;20065;-84
2023/02/08 08:54:38;;;;;;;16.08;8.85;;;0.00;99.90;;;;;;5013408;28;20029;-86
2023/02/08 08:57:04;;;;;;;15.57;8.63;;;0.10;99.90;;;;;;5015331;28;20030;-84
2023/02/08 08:59:30;;;;;;;14.23;8.73;;;0.30;99.90;;;;;;5015629;28;20100;-86
2023/02/08 09:01:57;;;;;;;14.57;9.35;;;0.40;99.90;;;;;;5016739;28;20038;-87
2023/02/08 09:04:23;;;;;;;17.02;10.57;;;0.60;99.90;;;;;;4998209;28;20030;-86
2023/02/08 09:06:49;;;;;;;14.20;8.82;;;0.70;99.90;;;;;;5016609;28;20038;-87
2023/02/08 09:09:15;;;;;;;17.25;10.20;;;0.70;99.90;;;;;;5019575;28;20064;-84
2023/02/08 09:11:48;;;;;;;13.38;8.95;;;0.90;99.90;;;;;;5023885;28;20021;-88
2023/02/08 09:14:14;;;;;;;12.70;8.27;;;1.00;99.90;;;;;;5023593;28;20033;-86
2023/02/08 09:16:49;;;;;;;14.23;8.02;;;1.00;99.90;;;;;;5033773;28;20044;-87
2023/02/08 09:19:15;;;;;;;15.75;9.25;;;1.10;99.90;;;;;;5039862;28;20029;-86
2023/02/08 09:21:41;;;;;;;18.55;10.75;;;1.20;99.90;;;;;;5023208;28;20063;-85
2023/02/08 09:24:07;;;;;;;17.15;11.38;;;1.60;99.90;;;;;;5031733;28;20036;-88
2023/02/08 09:26:33;;;;;;;16.55;11.55;;;3.00;99.90;;;;;;5029761;28;20562;-86
2023/02/08 09:28:59;;;;;;;15.43;10.82;;;4.50;99.90;;;;;;5007271;28;20084;-84
2023/02/08 09:31:27;;;;;;;14.90;9.95;;;5.80;99.90;;;;;;5033098;28;20017;-87
2023/02/08 09:33:55;;;;;;;15.27;9.82;;;7.00;99.90;;;;;;5019198;28;20455;-87
2023/02/08 09:36:22;;;;;;;12.35;8.20;;;7.90;99.90;;;;;;5025480;28;20049;-85
2023/02/08 09:38:49;;;;;;;12.73;7.30;;;8.90;99.90;;;;;;5026336;28;20102;-87
2023/02/08 09:41:15;;;;;;;10.65;7.35;;;9.80;99.90;;;;;;5015744;28;20126;-88
2023/02/08 09:43:52;;;;;;;13.32;7.07;;;10.50;99.90;;;;;;5028783;28;20124;-87
2023/02/08 09:46:27;;;;;;;10.30;7.03;;;11.10;99.90;;;;;;5022491;28;20079;-89
2023/02/08 09:48:57;;;;;;;11.73;6.65;;;11.50;99.90;;;;;;5031953;28;20105;-88
2023/02/08 09:51:25;;;;;;;9.40;6.63;;;12.00;99.90;;;;;;5014531;28;20028;-87
2023/02/08 09:53:56;;;;;;;11.38;7.85;;;12.30;99.90;;;;;;5016899;28;20041;-86
2023/02/08 09:56:28;;;;;;;11.32;6.82;;;12.60;99.90;;;;;;5023515;28;20014;-85
2023/02/08 09:58:56;;;;;;;9.77;6.53;;;12.90;99.90;;;;;;5025177;28;20033;-85
2023/02/08 10:01:28;;;;;;;10.98;5.90;;;13.20;99.90;;;;;;5015529;28;20018;-86
2023/02/08 10:04:00;;;;;;;9.68;6.25;;;13.60;99.90;;;;;;5026550;28;20041;-86
2023/02/08 10:06:26;;;;;;;12.95;6.72;;;13.80;99.90;;;;;;5021348;28;20451;-85
2023/02/08 10:08:52;;;;;;;9.60;6.82;;;14.00;99.90;;;;;;5018986;28;20045;-87
2023/02/08 10:11:27;;;;;;;12.38;7.03;;;14.10;99.90;;;;;;5028453;28;20124;-87
2023/02/08 10:14:17;;;;;;;9.35;6.88;;;14.30;99.90;;;;;;5013392;28;20068;-88
2023/02/08 10:16:53;;;;;;;9.07;6.13;;;14.60;99.90;;;;;;5013382;28;20064;-86
2023/02/08 10:19:32;;;;;;;11.10;6.90;;;14.90;99.90;;;;;;5028301;28;20479;-86
2023/02/08 10:22:05;;;;;;;8.60;6.40;;;15.30;99.90;;;;;;5018890;28;20033;-88
2023/02/08 10:25:19;;;;;;;10.55;5.68;;;15.50;99.90;;;;;;5021878;28;20100;-87
2023/02/08 10:28:04;;;;;;;7.57;5.47;;;15.70;99.90;;;;;;4991974;28;20070;-88
2023/02/08 10:30:52;;;;;;;6.68;5.25;;;15.60;99.90;;;;;;5022333;28;20117;-87
2023/02/08 10:33:29;;;;;;;10.10;6.43;;;15.60;99.90;;;;;;5032060;28;20037;-89
2023/02/08 10:35:56;;;;;;;8.18;5.80;;;15.40;99.90;;;;;;5020679;28;20502;-88
2023/02/08 10:38:37;;;;;;;10.68;6.60;;;15.30;99.90;;;;;;5028419;28;20017;-87
2023/02/08 10:41:07;;;;;;;9.98;6.85;;;15.30;99.90;;;;;;5031060;28;20030;-87
2023/02/08 10:43:36;;;;;;;13.55;7.30;;;15.10;99.00;;;;;;5011458;28;20085;-86
2023/02/08 10:46:38;;;;;;;9.13;6.45;;;15.00;98.00;;;;;;5016800;28;20024;-87
2023/02/08 10:49:15;;;;;;;8.52;6.20;;;14.70;97.60;;;;;;5016834;28;20036;-89
2023/02/08 10:51:44;;;;;;;8.90;6.18;;;14.70;97.30;;;;;;5015722;28;20104;-90
2023/02/08 10:54:13;;;;;;;9.02;5.82;;;14.90;97.40;;;;;;5031785;28;20030;-87
2023/02/08 10:56:56;;;;;;;9.02;5.85;;;15.10;97.00;;;;;;5020761;28;20018;-87
2023/02/08 10:59:27;;;;;;;8.90;5.90;;;15.50;97.10;;;;;;5030769;28;20025;-87
2023/02/08 11:01:55;;;;;;;8.65;5.80;;;15.90;96.80;;;;;;5032286;28;20018;-85
2023/02/08 11:04:20;;;;;;;8.02;5.40;;;16.10;96.00;;;;;;5025483;28;20098;-85
2023/02/08 11:06:48;;;;;;;8.50;6.25;;;16.30;96.00;;;;;;5022547;28;20030;-86
2023/02/08 11:09:28;;;;;;;8.82;6.47;;;16.30;94.80;;;;;;5032660;28;20451;-85
2023/02/08 11:11:55;;;;;;;8.90;6.68;;;16.20;94.70;;;;;;5005697;28;20443;-86
2023/02/08 11:14:33;;;;;;;8.65;6.13;;;16.40;94.00;;;;;;5027428;28;20125;-84
2023/02/08 11:16:59;;;;;;;8.52;6.50;;;16.20;92.80;;;;;;5029187;28;20034;-87
2023/02/08 11:19:44;;;;;;;7.65;5.60;;;15.90;92.40;;;;;;5019409;28;20044;-86
2023/02/08 11:22:18;;;;;;;7.40;5.15;;;16.00;93.00;;;;;;5024191;28;20021;-84
2023/02/08 11:24:49;;;;;;;5.65;4.35;;;16.30;93.20;;;;;;5023827;28;20064;-85
2023/02/08 11:27:16;;;;;;;8.35;5.28;;;16.70;93.40;;;;;;5032561;28;20029;-86
2023/02/08 11:29:43;;;;;;;7.13;4.78;;;17.10;93.00;;;;;;5019465;28;20116;-83
2023/02/08 11:32:19;;;;;;;6.90;4.70;;;17.30;92.60;;;;;;5030098;28;20101;-89
2023/02/08 11:34:47;;;;;;;6.90;4.50;;;17.70;92.60;;;;;;5017189;28;20030;-88
2023/02/08 11:37:25;;;;;;;6.47;4.22;;;17.90;92.50;;;;;;5027471;28;20064;-88
2023/02/08 11:39:59;;;;;;;6.20;4.60;;;18.30;92.40;;;;;;5017361;28;20045;-88
2023/02/08 11:42:46;;;;;;;;;;;;;;;;;;;;;
2023/02/08 11:45:50;;;;;;;7.57;4.68;;;18.80;91.70;;;;;;5016752;28;20030;-89
2023/02/08 11:48:23;;;;;;;5.50;3.83;;;18.90;91.30;;;;;;5012294;28;20128;-88
2023/02/08 11:51:01;;;;;;;7.63;4.15;;;18.90;91.20;;;;;;5018438;28;20021;-88
2023/02/08 11:53:38;;;;;;;5.03;3.60;;;19.20;91.40;;;;;;5027037;28;20061;-88
2023/02/08 11:56:22;;;;;;;7.00;4.07;;;19.60;90.70;;;;;;5024956;28;20025;-88
2023/02/08 11:59:31;;;;;;;6.15;3.80;;;19.80;89.70;;;;;;5016947;28;20026;-87
2023/02/08 12:02:35;;;;;;;9.05;5.45;;;19.80;90.00;;;;;;5005660;28;20084;-87
2023/02/08 12:05:01;;;;;;;;;;;19.60;87.00;;;;;;5014073;28;20030;-83
2023/02/08 12:07:35;;;;;;;6.68;4.75;;;19.20;88.40;;;;;;5018311;28;20011;-86
2023/02/08 12:10:22;;;;;;;6.50;4.22;;;19.10;86.10;;;;;;5019751;28;20116;-86
2023/02/08 12:12:59;;;;;;;6.72;3.85;;;19.00;85.70;;;;;;5033126;28;20030;-89
2023/02/08 12:15:55;;;;;;;5.35;3.70;;;19.20;85.90;;;;;;5014734;28;20057;-87
2023/02/08 12:18:23;;;;;;;5.47;3.63;;;19.10;86.00;;;;;;5034279;28;20021;-87
2023/02/08 12:21:20;;;;;;;5.35;3.80;;;18.90;87.80;;;;;;5017364;28;20069;-85
2023/02/08 12:24:04;;;;;;;5.70;3.78;;;18.80;85.90;;;;;;5018156;28;20523;-85
2023/02/08 12:27:15;;;;;;;7.57;4.15;;;19.10;86.10;;;;;;5031867;28;20018;-82
2023/02/08 12:29:43;;;;;;;5.40;3.47;;;19.30;85.00;;;;;;5043287;28;20029;-85
2023/02/08 12:32:49;;;;;;;6.47;4.28;;;19.30;85.20;;;;;;5037062;28;20022;-83
2023/02/08 12:35:55;;;;;;;;;;;;;;;;;;;;;
2023/02/08 12:41:29;;;;;;;5.05;3.38;;;18.70;82.80;;;;;;5025902;28;20028;-85
2023/02/08 12:44:14;;;;;;;4.90;3.00;;;18.70;83.20;;;;;;5017016;28;20057;-87
2023/02/08 12:47:47;;;;;;;5.68;3.28;;;18.70;83.10;;;;;;5021939;28;20052;-85
2023/02/08 12:50:30;;;;;;;4.05;3.03;;;19.10;83.80;;;;;;4966182;28;20180;-87
2023/02/08 12:53:08;;;;;;;4.72;3.35;;;19.20;83.50;;;;;;4976425;28;20090;-87
2023/02/08 12:55:48;;;;;;;5.22;3.05;;;19.10;82.90;;;;;;5020898;28;20068;-83
2023/02/08 12:58:52;;;;;;;6.22;3.58;;;19.10;82.30;;;;;;5018015;28;20120;-88
2023/02/08 13:01:56;;;;;;;;;;;;;;;;;;;;;
2023/02/08 13:04:29;;;;;;;5.20;2.90;;;19.20;82.80;;;;;;5012473;28;20399;-86
2023/02/08 13:07:05;;;;;;;4.57;3.22;;;19.10;81.10;;;;;;5008925;28;20113;-85
2023/02/08 13:09:47;;;;;;;5.07;3.33;;;18.80;79.30;;;;;;5019585;28;20026;-83
2023/02/08 13:12:21;;;;;;;4.88;3.05;;;18.60;78.20;;;;;;5023903;28;20041;-85